sensor_id;sensor_type;location;lat;lon;timestamp;P1;durP1;ratioP1;P2;durP2;ratioP2
25663;SDS011;13522;50.018;20.014;2022-09-12T00:01:44;10.98;;;7.63;;
25663;SDS011;13522;50.018;20.014;2022-09-12T00:04:55;13.80;;;7.63;;
25663;SDS011;13522;50.018;20.014;2022-09-12T00:08:10;10.95;;;7.38;;
25663;SDS011;13522;50.018;20.014;2022-09-12T00:11:22;10.93;;;7.78;;
25663;SDS011;13522;50.018;20.014;2022-09-12T00:14:34;15.65;;;7.78;;
25663;SDS011;13522;50.018;20.014;2022-09-12T00:17:48;9.58;;;7.33;;
25663;SDS011;13522;50.018;20.014;2022-09-12T00:21:02;11.88;;;8.28;;
25663;SDS011;13522;50.018;20.014;2022-09-12T00:24:14;13.73;;;8.28;;
25663;SDS011;13522;50.018;20.014;2022-09-12T00:27:26;10.43;;;8.20;;
25663;SDS011;13522;50.018;20.014;2022-09-12T00:30:41;12.83;;;7.55;;
25663;SDS011;13522;50.018;20.014;2022-09-12T00:33:55;12.07;;;8.50;;
25663;SDS011;13522;50.018;20.014;2022-09-12T00:37:08;11.25;;;8.50;;
25663;SDS011;13522;50.018;20.014;2022-09-12T00:40:21;17.13;;;9.23;;
25663;SDS011;13522;50.018;20.014;2022-09-12T00:43:37;13.18;;;9.23;;
25663;SDS011;13522;50.018;20.014;2022-09-12T00:46:51;14.03;;;8.75;;
25663;SDS011;13522;50.018;20.014;2022-09-12T00:50:07;15.55;;;9.38;;
25663;SDS011;13522;50.018;20.014;2022-09-12T00:53:21;14.78;;;9.73;;
25663;SDS011;13522;50.018;20.014;2022-09-12T00:56:34;14.68;;;9.88;;
25663;SDS011;13522;50.018;20.014;2022-09-12T00:59:49;16.10;;;9.58;;
25663;SDS011;13522;50.018;20.014;2022-09-12T01:03:06;12.98;;;9.73;;
25663;SDS011;13522;50.018;20.014;2022-09-12T01:06:22;11.95;;;9.68;;
25663;SDS011;13522;50.018;20.014;2022-09-12T01:09:38;11.83;;;9.38;;
25663;SDS011;13522;50.018;20.014;2022-09-12T01:13:40;13.20;;;9.13;;
25663;SDS011;13522;50.018;20.014;2022-09-12T01:16:52;21.60;;;9.08;;
25663;SDS011;13522;50.018;20.014;2022-09-12T01:20:12;15.90;;;9.48;;
25663;SDS011;13522;50.018;20.014;2022-09-12T01:24:06;12.65;;;9.05;;
25663;SDS011;13522;50.018;20.014;2022-09-12T01:27:49;14.58;;;9.95;;
25663;SDS011;13522;50.018;20.014;2022-09-12T01:31:24;15.23;;;9.68;;
25663;SDS011;13522;50.018;20.014;2022-09-12T01:34:42;13.98;;;10.23;;
25663;SDS011;13522;50.018;20.014;2022-09-12T01:38:01;13.80;;;9.93;;
25663;SDS011;13522;50.018;20.014;2022-09-12T01:42:09;12.48;;;9.28;;
25663;SDS011;13522;50.018;20.014;2022-09-12T01:45:27;14.35;;;9.98;;
25663;SDS011;13522;50.018;20.014;2022-09-12T01:48:43;13.93;;;10.93;;
25663;SDS011;13522;50.018;20.014;2022-09-12T01:51:59;15.63;;;11.28;;
25663;SDS011;13522;50.018;20.014;2022-09-12T01:55:18;14.80;;;10.53;;
25663;SDS011;13522;50.018;20.014;2022-09-12T01:58:34;14.93;;;10.28;;
25663;SDS011;13522;50.018;20.014;2022-09-12T02:01:51;11.58;;;9.95;;
25663;SDS011;13522;50.018;20.014;2022-09-12T02:05:10;11.80;;;9.35;;
25663;SDS011;13522;50.018;20.014;2022-09-12T02:08:26;15.93;;;9.50;;
25663;SDS011;13522;50.018;20.014;2022-09-12T02:11:42;12.80;;;10.30;;
25663;SDS011;13522;50.018;20.014;2022-09-12T02:14:56;16.35;;;10.15;;
25663;SDS011;13522;50.018;20.014;2022-09-12T02:18:12;13.45;;;10.13;;
25663;SDS011;13522;50.018;20.014;2022-09-12T02:21:26;17.30;;;10.95;;
25663;SDS011;13522;50.018;20.014;2022-09-12T02:24:39;15.80;;;10.50;;
25663;SDS011;13522;50.018;20.014;2022-09-12T02:27:58;14.40;;;10.70;;
25663;SDS011;13522;50.018;20.014;2022-09-12T02:31:16;17.38;;;12.00;;
25663;SDS011;13522;50.018;20.014;2022-09-12T02:34:35;17.93;;;10.88;;
25663;SDS011;13522;50.018;20.014;2022-09-12T02:37:54;14.33;;;10.60;;
25663;SDS011;13522;50.018;20.014;2022-09-12T02:41:11;17.03;;;10.93;;
25663;SDS011;13522;50.018;20.014;2022-09-12T02:44:27;16.13;;;10.98;;
25663;SDS011;13522;50.018;20.014;2022-09-12T02:47:41;16.40;;;10.95;;
25663;SDS011;13522;50.018;20.014;2022-09-12T02:50:56;14.65;;;10.68;;
25663;SDS011;13522;50.018;20.014;2022-09-12T02:54:09;13.98;;;10.58;;
25663;SDS011;13522;50.018;20.014;2022-09-12T02:57:22;14.48;;;10.45;;
25663;SDS011;13522;50.018;20.014;2022-09-12T03:00:37;12.75;;;9.93;;
25663;SDS011;13522;50.018;20.014;2022-09-12T03:03:58;15.28;;;9.60;;
25663;SDS011;13522;50.018;20.014;2022-09-12T03:07:33;13.68;;;10.38;;
25663;SDS011;13522;50.018;20.014;2022-09-12T03:11:02;17.65;;;10.75;;
25663;SDS011;13522;50.018;20.014;2022-09-12T03:15:10;17.68;;;12.10;;
25663;SDS011;13522;50.018;20.014;2022-09-12T03:22:48;19.15;;;13.58;;
25663;SDS011;13522;50.018;20.014;2022-09-12T03:26:04;17.30;;;12.58;;
25663;SDS011;13522;50.018;20.014;2022-09-12T03:29:20;18.48;;;13.80;;
25663;SDS011;13522;50.018;20.014;2022-09-12T03:33:38;18.25;;;14.63;;
25663;SDS011;13522;50.018;20.014;2022-09-12T03:36:51;19.75;;;14.58;;
25663;SDS011;13522;50.018;20.014;2022-09-12T03:40:08;20.90;;;14.33;;
25663;SDS011;13522;50.018;20.014;2022-09-12T03:43:21;21.10;;;13.67;;
25663;SDS011;13522;50.018;20.014;2022-09-12T03:47:38;19.38;;;14.90;;
25663;SDS011;13522;50.018;20.014;2022-09-12T03:52:08;19.38;;;14.08;;
25663;SDS011;13522;50.018;20.014;2022-09-12T05:51:10;14.83;;;10.13;;
25663;SDS011;13522;50.018;20.014;2022-09-12T05:54:25;10.35;;;9.15;;
25663;SDS011;13522;50.018;20.014;2022-09-12T05:58:43;10.95;;;7.93;;
25663;SDS011;13522;50.018;20.014;2022-09-12T06:03:08;15.03;;;8.65;;
25663;SDS011;13522;50.018;20.014;2022-09-12T06:07:07;10.65;;;8.53;;
25663;SDS011;13522;50.018;20.014;2022-09-12T06:11:25;11.10;;;7.38;;
25663;SDS011;13522;50.018;20.014;2022-09-12T07:32:24;11.70;;;7.03;;
25663;SDS011;13522;50.018;20.014;2022-09-12T07:35:36;12.10;;;7.43;;
25663;SDS011;13522;50.018;20.014;2022-09-12T07:38:47;6.65;;;3.95;;
25663;SDS011;13522;50.018;20.014;2022-09-12T07:42:05;10.80;;;3.70;;
25663;SDS011;13522;50.018;20.014;2022-09-12T07:45:18;9.68;;;3.63;;
25663;SDS011;13522;50.018;20.014;2022-09-12T07:48:29;7.03;;;3.38;;
25663;SDS011;13522;50.018;20.014;2022-09-12T07:51:41;4.23;;;3.10;;
25663;SDS011;13522;50.018;20.014;2022-09-12T07:54:52;5.98;;;2.48;;
25663;SDS011;13522;50.018;20.014;2022-09-12T07:58:04;3.63;;;2.28;;
25663;SDS011;13522;50.018;20.014;2022-09-12T08:01:16;5.30;;;2.28;;
25663;SDS011;13522;50.018;20.014;2022-09-12T08:04:30;3.80;;;1.80;;
25663;SDS011;13522;50.018;20.014;2022-09-12T08:07:42;2.90;;;2.25;;
25663;SDS011;13522;50.018;20.014;2022-09-12T08:10:57;3.15;;;2.00;;
25663;SDS011;13522;50.018;20.014;2022-09-12T08:14:10;6.43;;;2.30;;
25663;SDS011;13522;50.018;20.014;2022-09-12T08:17:22;5.23;;;2.18;;
25663;SDS011;13522;50.018;20.014;2022-09-12T08:20:34;6.38;;;2.50;;
25663;SDS011;13522;50.018;20.014;2022-09-12T08:23:46;3.60;;;2.10;;
25663;SDS011;13522;50.018;20.014;2022-09-12T08:27:01;4.70;;;2.10;;
25663;SDS011;13522;50.018;20.014;2022-09-12T08:30:14;5.50;;;3.18;;
25663;SDS011;13522;50.018;20.014;2022-09-12T08:33:25;5.63;;;3.00;;
25663;SDS011;13522;50.018;20.014;2022-09-12T08:36:39;4.28;;;2.68;;
25663;SDS011;13522;50.018;20.014;2022-09-12T08:39:51;6.83;;;2.45;;
25663;SDS011;13522;50.018;20.014;2022-09-12T08:43:04;5.33;;;1.78;;
25663;SDS011;13522;50.018;20.014;2022-09-12T08:46:21;8.70;;;2.15;;
25663;SDS011;13522;50.018;20.014;2022-09-12T08:49:38;7.10;;;4.00;;
25663;SDS011;13522;50.018;20.014;2022-09-12T08:52:56;5.85;;;1.95;;
25663;SDS011;13522;50.018;20.014;2022-09-12T08:56:12;4.65;;;2.10;;
25663;SDS011;13522;50.018;20.014;2022-09-12T08:59:23;7.83;;;1.95;;
25663;SDS011;13522;50.018;20.014;2022-09-12T09:02:44;6.28;;;1.90;;
25663;SDS011;13522;50.018;20.014;2022-09-12T09:06:14;5.40;;;2.80;;
25663;SDS011;13522;50.018;20.014;2022-09-12T09:09:38;3.50;;;2.53;;
25663;SDS011;13522;50.018;20.014;2022-09-12T09:12:59;14.63;;;10.18;;
25663;SDS011;13522;50.018;20.014;2022-09-12T09:16:16;4.50;;;1.70;;
25663;SDS011;13522;50.018;20.014;2022-09-12T09:19:35;3.85;;;1.88;;
25663;SDS011;13522;50.018;20.014;2022-09-12T09:22:54;5.50;;;1.90;;
25663;SDS011;13522;50.018;20.014;2022-09-12T09:26:12;3.98;;;1.88;;
25663;SDS011;13522;50.018;20.014;2022-09-12T09:29:31;4.70;;;1.73;;
25663;SDS011;13522;50.018;20.014;2022-09-12T09:32:48;4.23;;;1.90;;
25663;SDS011;13522;50.018;20.014;2022-09-12T09:36:04;4.88;;;1.58;;
25663;SDS011;13522;50.018;20.014;2022-09-12T09:39:29;7.70;;;2.40;;
25663;SDS011;13522;50.018;20.014;2022-09-12T09:42:57;11.58;;;5.68;;
25663;SDS011;13522;50.018;20.014;2022-09-12T09:46:13;3.15;;;1.85;;
25663;SDS011;13522;50.018;20.014;2022-09-12T09:49:25;2.20;;;1.33;;
25663;SDS011;13522;50.018;20.014;2022-09-12T09:52:41;6.88;;;2.08;;
25663;SDS011;13522;50.018;20.014;2022-09-12T09:55:54;4.78;;;1.50;;
25663;SDS011;13522;50.018;20.014;2022-09-12T09:59:10;2.27;;;1.63;;
25663;SDS011;13522;50.018;20.014;2022-09-12T10:02:25;2.97;;;1.37;;
25663;SDS011;13522;50.018;20.014;2022-09-12T10:05:44;1.93;;;1.25;;
25663;SDS011;13522;50.018;20.014;2022-09-12T10:09:16;2.75;;;1.38;;
25663;SDS011;13522;50.018;20.014;2022-09-12T10:12:31;4.50;;;1.48;;
25663;SDS011;13522;50.018;20.014;2022-09-12T10:15:43;2.90;;;1.20;;
25663;SDS011;13522;50.018;20.014;2022-09-12T10:19:10;6.43;;;2.63;;
25663;SDS011;13522;50.018;20.014;2022-09-12T10:22:29;6.83;;;4.18;;
25663;SDS011;13522;50.018;20.014;2022-09-12T10:25:41;5.75;;;1.80;;
25663;SDS011;13522;50.018;20.014;2022-09-12T10:29:01;4.33;;;1.38;;
25663;SDS011;13522;50.018;20.014;2022-09-12T10:32:23;2.65;;;1.50;;
25663;SDS011;13522;50.018;20.014;2022-09-12T10:35:45;2.25;;;1.38;;
25663;SDS011;13522;50.018;20.014;2022-09-12T10:38:59;5.08;;;1.30;;
25663;SDS011;13522;50.018;20.014;2022-09-12T10:42:13;10.88;;;1.90;;
25663;SDS011;13522;50.018;20.014;2022-09-12T10:45:27;2.50;;;1.70;;
25663;SDS011;13522;50.018;20.014;2022-09-12T10:48:43;2.55;;;1.48;;
25663;SDS011;13522;50.018;20.014;2022-09-12T10:51:57;3.88;;;2.25;;
25663;SDS011;13522;50.018;20.014;2022-09-12T10:55:29;4.70;;;1.80;;
25663;SDS011;13522;50.018;20.014;2022-09-12T11:06:42;2.40;;;1.50;;
25663;SDS011;13522;50.018;20.014;2022-09-12T11:11:34;2.03;;;1.58;;
25663;SDS011;13522;50.018;20.014;2022-09-12T16:07:35;2.83;;;1.83;;
25663;SDS011;13522;50.018;20.014;2022-09-12T16:10:47;2.35;;;1.65;;
25663;SDS011;13522;50.018;20.014;2022-09-12T16:14:03;4.23;;;1.98;;
25663;SDS011;13522;50.018;20.014;2022-09-12T16:17:15;5.28;;;2.58;;
25663;SDS011;13522;50.018;20.014;2022-09-12T16:20:27;5.63;;;2.50;;
25663;SDS011;13522;50.018;20.014;2022-09-12T16:23:38;54.25;;;34.83;;
25663;SDS011;13522;50.018;20.014;2022-09-12T16:26:52;10.40;;;6.20;;
25663;SDS011;13522;50.018;20.014;2022-09-12T16:30:05;14.85;;;8.85;;
25663;SDS011;13522;50.018;20.014;2022-09-12T16:33:19;5.73;;;3.33;;
25663;SDS011;13522;50.018;20.014;2022-09-12T16:36:31;8.55;;;3.63;;
25663;SDS011;13522;50.018;20.014;2022-09-12T16:39:43;7.63;;;3.30;;
25663;SDS011;13522;50.018;20.014;2022-09-12T16:42:55;7.60;;;3.50;;
25663;SDS011;13522;50.018;20.014;2022-09-12T16:46:08;7.20;;;4.03;;
25663;SDS011;13522;50.018;20.014;2022-09-12T16:49:25;8.10;;;4.55;;
25663;SDS011;13522;50.018;20.014;2022-09-12T16:52:37;11.08;;;5.18;;
25663;SDS011;13522;50.018;20.014;2022-09-12T16:55:48;9.35;;;4.85;;
25663;SDS011;13522;50.018;20.014;2022-09-12T16:59:00;12.23;;;5.80;;
25663;SDS011;13522;50.018;20.014;2022-09-12T17:02:12;6.98;;;3.90;;
25663;SDS011;13522;50.018;20.014;2022-09-12T17:05:24;7.30;;;4.65;;
25663;SDS011;13522;50.018;20.014;2022-09-12T17:08:37;10.63;;;3.40;;
25663;SDS011;13522;50.018;20.014;2022-09-12T17:11:51;7.70;;;4.13;;
25663;SDS011;13522;50.018;20.014;2022-09-12T17:15:04;8.58;;;3.20;;
25663;SDS011;13522;50.018;20.014;2022-09-12T17:18:17;10.28;;;5.58;;
25663;SDS011;13522;50.018;20.014;2022-09-12T17:21:28;12.50;;;4.85;;
25663;SDS011;13522;50.018;20.014;2022-09-12T17:24:41;6.43;;;3.20;;
25663;SDS011;13522;50.018;20.014;2022-09-12T17:27:52;6.93;;;3.55;;
25663;SDS011;13522;50.018;20.014;2022-09-12T17:31:05;16.98;;;9.05;;
25663;SDS011;13522;50.018;20.014;2022-09-12T17:34:21;6.60;;;3.20;;
25663;SDS011;13522;50.018;20.014;2022-09-12T17:37:33;5.90;;;3.60;;
25663;SDS011;13522;50.018;20.014;2022-09-12T17:40:46;5.73;;;2.78;;
25663;SDS011;13522;50.018;20.014;2022-09-12T17:44:00;5.63;;;2.95;;
25663;SDS011;13522;50.018;20.014;2022-09-12T17:47:13;8.15;;;2.70;;
25663;SDS011;13522;50.018;20.014;2022-09-12T17:50:25;6.45;;;2.63;;
25663;SDS011;13522;50.018;20.014;2022-09-12T17:53:39;44.28;;;31.10;;
25663;SDS011;13522;50.018;20.014;2022-09-12T17:56:52;30.20;;;13.15;;
25663;SDS011;13522;50.018;20.014;2022-09-12T18:00:05;11.63;;;6.80;;
25663;SDS011;13522;50.018;20.014;2022-09-12T18:03:21;4.93;;;3.00;;
25663;SDS011;13522;50.018;20.014;2022-09-12T18:06:34;9.13;;;4.73;;
25663;SDS011;13522;50.018;20.014;2022-09-12T18:09:49;7.48;;;3.90;;
25663;SDS011;13522;50.018;20.014;2022-09-12T18:13:01;6.88;;;3.30;;
25663;SDS011;13522;50.018;20.014;2022-09-12T18:16:14;7.40;;;4.20;;
25663;SDS011;13522;50.018;20.014;2022-09-12T18:19:25;8.18;;;4.05;;
25663;SDS011;13522;50.018;20.014;2022-09-12T18:22:38;9.43;;;4.98;;
25663;SDS011;13522;50.018;20.014;2022-09-12T18:25:56;19.53;;;6.63;;
25663;SDS011;13522;50.018;20.014;2022-09-12T18:29:12;12.50;;;7.98;;
25663;SDS011;13522;50.018;20.014;2022-09-12T18:32:25;11.98;;;5.90;;
25663;SDS011;13522;50.018;20.014;2022-09-12T18:35:37;10.33;;;6.68;;
25663;SDS011;13522;50.018;20.014;2022-09-12T18:38:49;13.10;;;7.50;;
25663;SDS011;13522;50.018;20.014;2022-09-12T18:42:02;10.85;;;5.73;;
25663;SDS011;13522;50.018;20.014;2022-09-12T18:45:14;8.13;;;4.90;;
25663;SDS011;13522;50.018;20.014;2022-09-12T18:48:26;10.60;;;4.20;;
25663;SDS011;13522;50.018;20.014;2022-09-12T18:51:38;11.75;;;6.35;;
25663;SDS011;13522;50.018;20.014;2022-09-12T18:54:50;18.33;;;6.50;;
25663;SDS011;13522;50.018;20.014;2022-09-12T18:58:04;13.03;;;5.65;;
25663;SDS011;13522;50.018;20.014;2022-09-12T19:01:16;10.08;;;5.13;;
25663;SDS011;13522;50.018;20.014;2022-09-12T19:04:31;16.15;;;6.88;;
25663;SDS011;13522;50.018;20.014;2022-09-12T19:07:43;13.13;;;4.93;;
25663;SDS011;13522;50.018;20.014;2022-09-12T19:10:55;12.90;;;5.03;;
25663;SDS011;13522;50.018;20.014;2022-09-12T19:14:07;14.55;;;6.53;;
25663;SDS011;13522;50.018;20.014;2022-09-12T19:17:19;11.20;;;4.83;;
25663;SDS011;13522;50.018;20.014;2022-09-12T19:20:31;10.38;;;4.20;;
25663;SDS011;13522;50.018;20.014;2022-09-12T19:23:45;8.38;;;3.40;;
25663;SDS011;13522;50.018;20.014;2022-09-12T19:26:57;7.70;;;3.45;;
25663;SDS011;13522;50.018;20.014;2022-09-12T19:30:11;8.43;;;3.55;;
25663;SDS011;13522;50.018;20.014;2022-09-12T19:33:24;8.80;;;3.90;;
25663;SDS011;13522;50.018;20.014;2022-09-12T19:36:36;9.50;;;3.75;;
25663;SDS011;13522;50.018;20.014;2022-09-12T19:39:50;9.63;;;2.80;;
25663;SDS011;13522;50.018;20.014;2022-09-12T19:43:02;8.00;;;3.50;;
25663;SDS011;13522;50.018;20.014;2022-09-12T19:46:16;7.23;;;2.85;;
25663;SDS011;13522;50.018;20.014;2022-09-12T19:49:29;5.20;;;2.90;;
25663;SDS011;13522;50.018;20.014;2022-09-12T19:52:41;7.53;;;3.20;;
25663;SDS011;13522;50.018;20.014;2022-09-12T19:55:54;6.75;;;3.10;;
25663;SDS011;13522;50.018;20.014;2022-09-12T19:59:10;12.33;;;3.33;;
25663;SDS011;13522;50.018;20.014;2022-09-12T20:02:22;6.20;;;3.20;;
25663;SDS011;13522;50.018;20.014;2022-09-12T20:05:34;8.43;;;4.40;;
25663;SDS011;13522;50.018;20.014;2022-09-12T20:08:46;8.48;;;4.90;;
25663;SDS011;13522;50.018;20.014;2022-09-12T20:11:57;14.68;;;5.60;;
25663;SDS011;13522;50.018;20.014;2022-09-12T20:15:10;11.68;;;5.08;;
25663;SDS011;13522;50.018;20.014;2022-09-12T20:18:22;13.63;;;6.00;;
25663;SDS011;13522;50.018;20.014;2022-09-12T20:21:34;15.98;;;7.38;;
25663;SDS011;13522;50.018;20.014;2022-09-12T20:24:46;10.88;;;6.65;;
25663;SDS011;13522;50.018;20.014;2022-09-12T20:27:59;15.13;;;6.58;;
25663;SDS011;13522;50.018;20.014;2022-09-12T20:31:12;13.48;;;6.78;;
25663;SDS011;13522;50.018;20.014;2022-09-12T20:34:25;11.23;;;6.80;;
25663;SDS011;13522;50.018;20.014;2022-09-12T20:37:37;16.85;;;7.75;;
25663;SDS011;13522;50.018;20.014;2022-09-12T20:40:48;14.93;;;7.48;;
25663;SDS011;13522;50.018;20.014;2022-09-12T20:44:00;16.88;;;7.83;;
25663;SDS011;13522;50.018;20.014;2022-09-12T20:47:12;17.65;;;7.38;;
25663;SDS011;13522;50.018;20.014;2022-09-12T20:50:24;12.18;;;7.13;;
25663;SDS011;13522;50.018;20.014;2022-09-12T20:53:36;15.70;;;7.60;;
25663;SDS011;13522;50.018;20.014;2022-09-12T20:56:47;13.03;;;8.83;;
25663;SDS011;13522;50.018;20.014;2022-09-12T20:59:59;20.08;;;8.60;;
25663;SDS011;13522;50.018;20.014;2022-09-12T21:03:12;13.83;;;7.78;;
25663;SDS011;13522;50.018;20.014;2022-09-12T21:06:24;11.48;;;7.50;;
25663;SDS011;13522;50.018;20.014;2022-09-12T21:09:36;11.20;;;6.83;;
25663;SDS011;13522;50.018;20.014;2022-09-12T21:12:48;12.65;;;6.58;;
25663;SDS011;13522;50.018;20.014;2022-09-12T21:16:01;12.15;;;6.23;;
25663;SDS011;13522;50.018;20.014;2022-09-12T21:19:16;10.03;;;5.90;;
25663;SDS011;13522;50.018;20.014;2022-09-12T21:22:28;11.18;;;6.43;;
25663;SDS011;13522;50.018;20.014;2022-09-12T21:25:40;11.98;;;6.58;;
25663;SDS011;13522;50.018;20.014;2022-09-12T21:28:54;12.20;;;6.75;;
25663;SDS011;13522;50.018;20.014;2022-09-12T21:32:06;9.55;;;6.35;;
25663;SDS011;13522;50.018;20.014;2022-09-12T21:35:18;10.30;;;6.48;;
25663;SDS011;13522;50.018;20.014;2022-09-12T21:38:30;10.18;;;6.10;;
25663;SDS011;13522;50.018;20.014;2022-09-12T21:41:42;9.33;;;5.80;;
25663;SDS011;13522;50.018;20.014;2022-09-12T21:44:54;11.90;;;6.50;;
25663;SDS011;13522;50.018;20.014;2022-09-12T21:48:06;12.00;;;7.70;;
25663;SDS011;13522;50.018;20.014;2022-09-12T21:51:18;13.13;;;7.10;;
25663;SDS011;13522;50.018;20.014;2022-09-12T21:54:30;11.88;;;6.95;;
25663;SDS011;13522;50.018;20.014;2022-09-12T21:57:42;13.50;;;6.85;;
25663;SDS011;13522;50.018;20.014;2022-09-12T22:00:54;11.25;;;7.23;;
25663;SDS011;13522;50.018;20.014;2022-09-12T22:04:08;11.60;;;7.00;;
25663;SDS011;13522;50.018;20.014;2022-09-12T22:07:22;13.80;;;7.48;;
25663;SDS011;13522;50.018;20.014;2022-09-12T22:10:34;12.45;;;7.58;;
25663;SDS011;13522;50.018;20.014;2022-09-12T22:13:46;13.05;;;7.53;;
25663;SDS011;13522;50.018;20.014;2022-09-12T22:16:58;12.08;;;7.30;;
25663;SDS011;13522;50.018;20.014;2022-09-12T22:20:11;12.63;;;7.50;;
25663;SDS011;13522;50.018;20.014;2022-09-12T22:23:22;10.85;;;6.88;;
25663;SDS011;13522;50.018;20.014;2022-09-12T22:26:49;12.20;;;7.50;;
25663;SDS011;13522;50.018;20.014;2022-09-12T22:30:02;10.00;;;6.65;;
25663;SDS011;13522;50.018;20.014;2022-09-12T22:33:16;16.08;;;7.30;;
25663;SDS011;13522;50.018;20.014;2022-09-12T22:36:28;14.65;;;7.25;;
25663;SDS011;13522;50.018;20.014;2022-09-12T22:39:42;9.50;;;6.35;;
25663;SDS011;13522;50.018;20.014;2022-09-12T22:42:53;10.53;;;6.45;;
25663;SDS011;13522;50.018;20.014;2022-09-12T22:46:06;12.40;;;8.23;;
25663;SDS011;13522;50.018;20.014;2022-09-12T22:49:19;12.95;;;7.33;;
25663;SDS011;13522;50.018;20.014;2022-09-12T22:52:31;12.50;;;7.18;;
25663;SDS011;13522;50.018;20.014;2022-09-12T22:55:43;10.43;;;7.00;;
25663;SDS011;13522;50.018;20.014;2022-09-12T22:58:55;12.30;;;7.53;;
25663;SDS011;13522;50.018;20.014;2022-09-12T23:06:28;12.60;;;7.58;;
25663;SDS011;13522;50.018;20.014;2022-09-12T23:09:40;12.53;;;7.83;;
25663;SDS011;13522;50.018;20.014;2022-09-12T23:12:53;12.18;;;7.63;;
25663;SDS011;13522;50.018;20.014;2022-09-12T23:16:05;14.10;;;7.88;;
25663;SDS011;13522;50.018;20.014;2022-09-12T23:19:21;12.60;;;7.78;;
25663;SDS011;13522;50.018;20.014;2022-09-12T23:22:33;14.25;;;7.98;;
25663;SDS011;13522;50.018;20.014;2022-09-12T23:25:45;13.95;;;7.45;;
25663;SDS011;13522;50.018;20.014;2022-09-12T23:28:59;12.85;;;7.40;;
25663;SDS011;13522;50.018;20.014;2022-09-12T23:32:12;14.38;;;8.38;;
25663;SDS011;13522;50.018;20.014;2022-09-12T23:35:24;12.83;;;8.25;;
25663;SDS011;13522;50.018;20.014;2022-09-12T23:38:36;13.28;;;8.25;;
25663;SDS011;13522;50.018;20.014;2022-09-12T23:41:50;14.33;;;8.48;;
25663;SDS011;13522;50.018;20.014;2022-09-12T23:45:02;13.00;;;8.23;;
25663;SDS011;13522;50.018;20.014;2022-09-12T23:48:15;13.15;;;7.55;;
25663;SDS011;13522;50.018;20.014;2022-09-12T23:51:27;19.00;;;8.10;;
25663;SDS011;13522;50.018;20.014;2022-09-12T23:54:39;14.68;;;8.20;;
25663;SDS011;13522;50.018;20.014;2022-09-12T23:57:50;14.50;;;8.68;;
